Deedsville, IN (46921)

8:57 AM EDT on July 07, 2015 (GMT -0400)
Akron, IN | | Change Station
CLOSE
Current Station
Personal Weather Station
Location: Akron, IN
Elevation: 870 ft
Nearby Weather Stations
Active Advisory: Flood Warning

Elev 870 ft 41.01 °N, 85.98 °W | Updated 11 minutes ago

Overcast
Overcast
71.2 °F
Feels Like 71.2 °F
N
1.0
Wind Variable Wind from West
Gusts 4.0 mph

Today
High -- | Low -- °F
--% Chance of Precip.
Yesterday
High -- | Low -- °F
Precip. -- in
6:19 AM 9:18 PM
Waning Gibbous, 65% visible
Pressure 29.90 in
Visibility 5.0 miles
Clouds Scattered Clouds 500 ft
Mostly Cloudy 1200 ft
Overcast 1700 ft
Dew Point 70 °F
Humidity 95%
Rainfall 0.40 in
Snow Depth Not available.
UV 1 out of 12
Pollen .50 out of 12
Air Quality Not available.
Flu Activity Not available.
METAR KRCR 071235Z AUTO 00000KT 5SM RA SCT005 BKN012 OVC017 22/22 A2990 RMK AO2 P0009

More Conditions Fewer Conditions

Pressure 29.90 in
Visibility 5.0 miles
Clouds Scattered Clouds 500 ft
Mostly Cloudy 1200 ft
Overcast 1700 ft
Dew Point 70 °F
Humidity 95%
Rainfall 0.40 in
Snow Depth Not available.
UV 1 out of 12
Pollen .50 out of 12
Air Quality Not available.
Flu Activity Not available.
METAR KRCR 071235Z AUTO 00000KT 5SM RA SCT005 BKN012 OVC017 22/22 A2990 RMK AO2 P0009

More Conditions Fewer Conditions

10-Day Weather Forecast

×

Almanac

Astronomy

Jul. 07, 2015 Rise Set
Actual Time
Civil Twilight
Nautical Twilight
Astronomical Twilight
Moon
Length of Visible Light
Length of Day
Tomorrow will be .
, % of the Moon is Illuminated

Today's Extremes

State Highs State Lows

Community

WunderPhotos

Upload Photos

1,835,788 photos uploaded!

WunderBlogs® & News

Nearby

Air Quality

  Air Quality AQ Index Pollutant
Not available.

Snow Depth

Station Depth Elevation

Earthquake Activity

City Distance Mag. Time & Date
Minimum magnitude displayed is 2.5.

Coastal Water Temperatures

Place Temperature

Stations

Nearby Weather Stations

Station Location Temp. Windchill Dew Point Humidity Wind Precip. Elev Updated Type
                   
Flood Warning
Statement as of 10:26 PM EDT on July 06, 2015

The Flood Warning continues for
the Wabash River at Wabash
* until further notice.
* At 9 PM Monday the stage was 15.6 feet and steady.
* Minor flooding is occurring.
* Flood stage is 14.0 feet.
* Forecast... the river will remain steady around 15.6 feet.


Lat... Lon 4070 8618 4078 8619 4086 8570 4081 8568
      4078 8582